sensor_id;sensor_type;location;lat;lon;timestamp;P1;durP1;ratioP1;P2;durP2;ratioP2
13319;SDS011;59599;47.608;12.190;2023-07-02T04:02:07;3.50;;;3.20;;
13319;SDS011;59599;47.608;12.190;2023-07-02T04:04:33;4.15;;;3.75;;
13319;SDS011;59599;47.608;12.190;2023-07-02T04:06:59;5.03;;;3.33;;
13319;SDS011;59599;47.608;12.190;2023-07-02T04:09:24;3.78;;;3.45;;
13319;SDS011;59599;47.608;12.190;2023-07-02T04:11:50;3.72;;;3.20;;
13319;SDS011;59599;47.608;12.190;2023-07-02T04:14:16;3.92;;;3.53;;
13319;SDS011;59599;47.608;12.190;2023-07-02T04:16:44;4.22;;;3.83;;
13319;SDS011;59599;47.608;12.190;2023-07-02T04:19:11;4.38;;;3.97;;
13319;SDS011;59599;47.608;12.190;2023-07-02T04:21:37;4.28;;;3.88;;
13319;SDS011;59599;47.608;12.190;2023-07-02T04:24:04;6.00;;;3.72;;
13319;SDS011;59599;47.608;12.190;2023-07-02T04:26:52;6.40;;;3.80;;
13319;SDS011;59599;47.608;12.190;2023-07-02T04:29:20;3.70;;;3.40;;
13319;SDS011;59599;47.608;12.190;2023-07-02T04:31:47;4.45;;;3.22;;
13319;SDS011;59599;47.608;12.190;2023-07-02T04:34:21;6.03;;;3.70;;
13319;SDS011;59599;47.608;12.190;2023-07-02T04:37:14;6.43;;;3.67;;
13319;SDS011;59599;47.608;12.190;2023-07-02T04:40:15;3.97;;;3.60;;
13319;SDS011;59599;47.608;12.190;2023-07-02T04:42:42;3.80;;;3.50;;
13319;SDS011;59599;47.608;12.190;2023-07-02T04:45:22;3.60;;;3.30;;
13319;SDS011;59599;47.608;12.190;2023-07-02T04:47:49;4.43;;;3.83;;
13319;SDS011;59599;47.608;12.190;2023-07-02T04:50:15;6.28;;;3.78;;
13319;SDS011;59599;47.608;12.190;2023-07-02T04:52:41;4.57;;;4.05;;
13319;SDS011;59599;47.608;12.190;2023-07-02T04:55:07;5.05;;;3.80;;
13319;SDS011;59599;47.608;12.190;2023-07-02T04:57:33;3.83;;;3.20;;
13319;SDS011;59599;47.608;12.190;2023-07-02T04:59:59;4.25;;;3.50;;
13319;SDS011;59599;47.608;12.190;2023-07-02T05:02:25;3.65;;;3.35;;
13319;SDS011;59599;47.608;12.190;2023-07-02T05:04:51;3.97;;;3.50;;
13319;SDS011;59599;47.608;12.190;2023-07-02T05:07:17;3.58;;;3.28;;
13319;SDS011;59599;47.608;12.190;2023-07-02T05:09:44;3.80;;;3.50;;
13319;SDS011;59599;47.608;12.190;2023-07-02T05:12:19;4.18;;;3.70;;
13319;SDS011;59599;47.608;12.190;2023-07-02T05:14:45;4.40;;;4.00;;
13319;SDS011;59599;47.608;12.190;2023-07-02T05:17:13;4.80;;;3.28;;
13319;SDS011;59599;47.608;12.190;2023-07-02T05:19:39;4.00;;;3.58;;
13319;SDS011;59599;47.608;12.190;2023-07-02T05:22:06;4.60;;;3.25;;
13319;SDS011;59599;47.608;12.190;2023-07-02T05:24:31;4.28;;;3.22;;
13319;SDS011;59599;47.608;12.190;2023-07-02T05:26:57;4.88;;;3.13;;
13319;SDS011;59599;47.608;12.190;2023-07-02T05:29:23;4.38;;;3.60;;
13319;SDS011;59599;47.608;12.190;2023-07-02T05:31:50;5.80;;;3.28;;
13319;SDS011;59599;47.608;12.190;2023-07-02T05:34:15;4.95;;;3.35;;
13319;SDS011;59599;47.608;12.190;2023-07-02T05:36:41;3.53;;;3.10;;
13319;SDS011;59599;47.608;12.190;2023-07-02T05:39:07;3.38;;;3.08;;
13319;SDS011;59599;47.608;12.190;2023-07-02T05:41:33;4.18;;;3.13;;
13319;SDS011;59599;47.608;12.190;2023-07-02T05:43:59;3.70;;;3.28;;
13319;SDS011;59599;47.608;12.190;2023-07-02T05:46:25;5.05;;;3.45;;
13319;SDS011;59599;47.608;12.190;2023-07-02T05:48:51;4.25;;;3.38;;
13319;SDS011;59599;47.608;12.190;2023-07-02T05:51:21;5.45;;;3.55;;
13319;SDS011;59599;47.608;12.190;2023-07-02T05:53:47;3.60;;;3.30;;
13319;SDS011;59599;47.608;12.190;2023-07-02T05:56:13;3.97;;;3.55;;
13319;SDS011;59599;47.608;12.190;2023-07-02T05:58:39;4.28;;;3.58;;
13319;SDS011;59599;47.608;12.190;2023-07-02T06:01:05;5.07;;;3.10;;
13319;SDS011;59599;47.608;12.190;2023-07-02T06:03:31;2.90;;;2.65;;
13319;SDS011;59599;47.608;12.190;2023-07-02T06:05:57;2.83;;;2.35;;
13319;SDS011;59599;47.608;12.190;2023-07-02T06:08:23;4.55;;;2.25;;
13319;SDS011;59599;47.608;12.190;2023-07-02T06:10:49;2.97;;;1.98;;
13319;SDS011;59599;47.608;12.190;2023-07-02T06:13:15;2.45;;;2.15;;
13319;SDS011;59599;47.608;12.190;2023-07-02T06:15:41;2.90;;;2.22;;
13319;SDS011;59599;47.608;12.190;2023-07-02T06:18:07;4.10;;;2.13;;
13319;SDS011;59599;47.608;12.190;2023-07-02T06:20:33;1.98;;;1.70;;
13319;SDS011;59599;47.608;12.190;2023-07-02T06:22:59;4.07;;;2.40;;
13319;SDS011;59599;47.608;12.190;2023-07-02T06:25:25;3.35;;;2.22;;
13319;SDS011;59599;47.608;12.190;2023-07-02T06:27:51;4.05;;;2.25;;
13319;SDS011;59599;47.608;12.190;2023-07-02T06:30:20;3.33;;;2.47;;
13319;SDS011;59599;47.608;12.190;2023-07-02T06:32:46;3.05;;;2.22;;
13319;SDS011;59599;47.608;12.190;2023-07-02T06:35:12;2.63;;;2.28;;
13319;SDS011;59599;47.608;12.190;2023-07-02T06:37:37;3.45;;;2.08;;
13319;SDS011;59599;47.608;12.190;2023-07-02T06:40:04;3.00;;;2.10;;
13319;SDS011;59599;47.608;12.190;2023-07-02T06:42:30;2.88;;;2.28;;
13319;SDS011;59599;47.608;12.190;2023-07-02T06:44:56;2.70;;;1.95;;
13319;SDS011;59599;47.608;12.190;2023-07-02T06:47:22;2.80;;;2.17;;
13319;SDS011;59599;47.608;12.190;2023-07-02T06:49:48;2.95;;;2.10;;
13319;SDS011;59599;47.608;12.190;2023-07-02T06:52:14;4.45;;;2.30;;
13319;SDS011;59599;47.608;12.190;2023-07-02T06:54:40;1.95;;;1.80;;
13319;SDS011;59599;47.608;12.190;2023-07-02T06:57:06;2.65;;;2.05;;
13319;SDS011;59599;47.608;12.190;2023-07-02T06:59:32;4.90;;;2.30;;
13319;SDS011;59599;47.608;12.190;2023-07-02T07:01:58;2.58;;;2.10;;
13319;SDS011;59599;47.608;12.190;2023-07-02T07:04:24;5.13;;;2.60;;
13319;SDS011;59599;47.608;12.190;2023-07-02T07:06:49;4.60;;;2.50;;
13319;SDS011;59599;47.608;12.190;2023-07-02T07:09:15;2.63;;;1.95;;
13319;SDS011;59599;47.608;12.190;2023-07-02T07:11:43;3.70;;;2.00;;
13319;SDS011;59599;47.608;12.190;2023-07-02T07:14:08;3.22;;;2.20;;
13319;SDS011;59599;47.608;12.190;2023-07-02T07:16:34;6.28;;;2.60;;
13319;SDS011;59599;47.608;12.190;2023-07-02T07:19:00;3.10;;;2.55;;
13319;SDS011;59599;47.608;12.190;2023-07-02T07:21:26;5.53;;;2.58;;
13319;SDS011;59599;47.608;12.190;2023-07-02T07:23:52;2.55;;;2.20;;
13319;SDS011;59599;47.608;12.190;2023-07-02T07:26:18;2.30;;;2.05;;
13319;SDS011;59599;47.608;12.190;2023-07-02T07:28:44;4.03;;;2.30;;
13319;SDS011;59599;47.608;12.190;2023-07-02T07:31:15;2.60;;;2.00;;
13319;SDS011;59599;47.608;12.190;2023-07-02T07:33:43;2.80;;;2.22;;
13319;SDS011;59599;47.608;12.190;2023-07-02T07:36:10;5.05;;;2.35;;
13319;SDS011;59599;47.608;12.190;2023-07-02T07:38:36;2.67;;;2.00;;
13319;SDS011;59599;47.608;12.190;2023-07-02T07:41:02;3.85;;;2.10;;
13319;SDS011;59599;47.608;12.190;2023-07-02T07:43:28;2.53;;;2.00;;
13319;SDS011;59599;47.608;12.190;2023-07-02T07:45:54;2.05;;;1.85;;
13319;SDS011;59599;47.608;12.190;2023-07-02T07:48:20;2.42;;;1.90;;
13319;SDS011;59599;47.608;12.190;2023-07-02T07:50:46;2.13;;;1.92;;
13319;SDS011;59599;47.608;12.190;2023-07-02T07:53:12;3.72;;;2.08;;
13319;SDS011;59599;47.608;12.190;2023-07-02T07:55:38;2.75;;;2.05;;
13319;SDS011;59599;47.608;12.190;2023-07-02T07:58:04;4.03;;;1.95;;
13319;SDS011;59599;47.608;12.190;2023-07-02T08:00:30;4.65;;;2.08;;
13319;SDS011;59599;47.608;12.190;2023-07-02T08:02:56;3.05;;;2.10;;
13319;SDS011;59599;47.608;12.190;2023-07-02T08:05:22;3.92;;;2.13;;
13319;SDS011;59599;47.608;12.190;2023-07-02T08:07:48;2.95;;;2.13;;
13319;SDS011;59599;47.608;12.190;2023-07-02T08:10:14;3.05;;;2.40;;
13319;SDS011;59599;47.608;12.190;2023-07-02T08:12:40;2.05;;;1.88;;
13319;SDS011;59599;47.608;12.190;2023-07-02T08:15:06;4.43;;;2.15;;
13319;SDS011;59599;47.608;12.190;2023-07-02T08:17:32;5.82;;;2.35;;
13319;SDS011;59599;47.608;12.190;2023-07-02T08:19:59;3.63;;;2.35;;
13319;SDS011;59599;47.608;12.190;2023-07-02T08:22:25;3.35;;;2.63;;
13319;SDS011;59599;47.608;12.190;2023-07-02T08:24:51;3.40;;;2.28;;
13319;SDS011;59599;47.608;12.190;2023-07-02T08:27:17;3.58;;;2.20;;
13319;SDS011;59599;47.608;12.190;2023-07-02T08:29:48;2.13;;;1.80;;
13319;SDS011;59599;47.608;12.190;2023-07-02T08:32:14;2.55;;;2.00;;
13319;SDS011;59599;47.608;12.190;2023-07-02T08:34:41;2.13;;;1.88;;
13319;SDS011;59599;47.608;12.190;2023-07-02T08:37:08;2.22;;;2.03;;
13319;SDS011;59599;47.608;12.190;2023-07-02T08:39:34;2.97;;;2.03;;
13319;SDS011;59599;47.608;12.190;2023-07-02T08:42:03;2.15;;;1.90;;
13319;SDS011;59599;47.608;12.190;2023-07-02T08:44:29;2.30;;;2.10;;
13319;SDS011;59599;47.608;12.190;2023-07-02T08:46:55;4.80;;;2.15;;
13319;SDS011;59599;47.608;12.190;2023-07-02T08:49:22;2.72;;;1.90;;
13319;SDS011;59599;47.608;12.190;2023-07-02T08:51:48;3.28;;;2.00;;
13319;SDS011;59599;47.608;12.190;2023-07-02T08:54:14;2.10;;;1.90;;
13319;SDS011;59599;47.608;12.190;2023-07-02T08:56:40;2.85;;;2.00;;
13319;SDS011;59599;47.608;12.190;2023-07-02T08:59:07;3.65;;;2.22;;
13319;SDS011;59599;47.608;12.190;2023-07-02T09:01:43;3.75;;;2.38;;
13319;SDS011;59599;47.608;12.190;2023-07-02T09:04:14;2.53;;;2.10;;
13319;SDS011;59599;47.608;12.190;2023-07-02T09:06:40;2.65;;;2.10;;
13319;SDS011;59599;47.608;12.190;2023-07-02T09:09:06;3.38;;;2.42;;
13319;SDS011;59599;47.608;12.190;2023-07-02T09:11:32;2.20;;;1.90;;
13319;SDS011;59599;47.608;12.190;2023-07-02T09:13:58;2.63;;;2.20;;
13319;SDS011;59599;47.608;12.190;2023-07-02T09:16:32;5.45;;;2.67;;
13319;SDS011;59599;47.608;12.190;2023-07-02T09:19:02;4.90;;;2.40;;
13319;SDS011;59599;47.608;12.190;2023-07-02T09:21:37;3.25;;;2.15;;
13319;SDS011;59599;47.608;12.190;2023-07-02T09:24:15;3.13;;;2.30;;
13319;SDS011;59599;47.608;12.190;2023-07-02T09:26:55;3.47;;;2.47;;
13319;SDS011;59599;47.608;12.190;2023-07-02T09:29:25;4.35;;;2.25;;
13319;SDS011;59599;47.608;12.190;2023-07-02T09:31:57;3.97;;;2.20;;
13319;SDS011;59599;47.608;12.190;2023-07-02T09:34:30;3.47;;;2.50;;
13319;SDS011;59599;47.608;12.190;2023-07-02T09:36:59;3.25;;;2.10;;
13319;SDS011;59599;47.608;12.190;2023-07-02T09:39:29;3.22;;;2.15;;
13319;SDS011;59599;47.608;12.190;2023-07-02T09:41:56;1.88;;;1.77;;
13319;SDS011;59599;47.608;12.190;2023-07-02T09:44:27;1.92;;;1.75;;
13319;SDS011;59599;47.608;12.190;2023-07-02T09:49:33;2.10;;;1.80;;
13319;SDS011;59599;47.608;12.190;2023-07-02T09:52:06;3.05;;;2.00;;
13319;SDS011;59599;47.608;12.190;2023-07-02T09:54:33;2.85;;;2.00;;
13319;SDS011;59599;47.608;12.190;2023-07-02T09:56:59;3.55;;;2.20;;
13319;SDS011;59599;47.608;12.190;2023-07-02T09:59:25;1.90;;;1.77;;
13319;SDS011;59599;47.608;12.190;2023-07-02T10:01:51;2.10;;;1.90;;
13319;SDS011;59599;47.608;12.190;2023-07-02T10:04:18;2.55;;;2.20;;
13319;SDS011;59599;47.608;12.190;2023-07-02T10:06:51;2.30;;;2.10;;
13319;SDS011;59599;47.608;12.190;2023-07-02T10:09:18;2.95;;;2.17;;
13319;SDS011;59599;47.608;12.190;2023-07-02T10:11:44;2.97;;;2.50;;
13319;SDS011;59599;47.608;12.190;2023-07-02T10:14:10;3.83;;;2.30;;
13319;SDS011;59599;47.608;12.190;2023-07-02T10:16:50;3.47;;;2.72;;
13319;SDS011;59599;47.608;12.190;2023-07-02T10:19:16;5.93;;;2.88;;
13319;SDS011;59599;47.608;12.190;2023-07-02T10:21:42;5.38;;;2.78;;
13319;SDS011;59599;47.608;12.190;2023-07-02T10:24:14;4.75;;;2.83;;
13319;SDS011;59599;47.608;12.190;2023-07-02T10:26:54;4.50;;;3.10;;
13319;SDS011;59599;47.608;12.190;2023-07-02T10:29:23;2.97;;;2.30;;
13319;SDS011;59599;47.608;12.190;2023-07-02T10:31:50;4.57;;;2.80;;
13319;SDS011;59599;47.608;12.190;2023-07-02T10:34:27;3.75;;;2.67;;
13319;SDS011;59599;47.608;12.190;2023-07-02T10:36:56;2.95;;;2.60;;
13319;SDS011;59599;47.608;12.190;2023-07-02T10:39:23;5.25;;;3.40;;
13319;SDS011;59599;47.608;12.190;2023-07-02T10:41:49;4.07;;;3.45;;
13319;SDS011;59599;47.608;12.190;2023-07-02T10:44:15;6.40;;;3.90;;
13319;SDS011;59599;47.608;12.190;2023-07-02T10:46:47;4.28;;;3.88;;
13319;SDS011;59599;47.608;12.190;2023-07-02T10:49:14;4.70;;;3.83;;
13319;SDS011;59599;47.608;12.190;2023-07-02T10:51:42;5.30;;;4.40;;
13319;SDS011;59599;47.608;12.190;2023-07-02T10:54:07;4.70;;;3.97;;
13319;SDS011;59599;47.608;12.190;2023-07-02T10:56:34;5.57;;;4.32;;
13319;SDS011;59599;47.608;12.190;2023-07-02T10:59:00;6.15;;;4.22;;
13319;SDS011;59599;47.608;12.190;2023-07-02T11:01:29;4.47;;;3.80;;
13319;SDS011;59599;47.608;12.190;2023-07-02T11:03:59;4.50;;;3.85;;
13319;SDS011;59599;47.608;12.190;2023-07-02T11:06:26;5.88;;;4.10;;
13319;SDS011;59599;47.608;12.190;2023-07-02T11:08:52;6.50;;;4.50;;
13319;SDS011;59599;47.608;12.190;2023-07-02T11:11:19;5.78;;;5.07;;
13319;SDS011;59599;47.608;12.190;2023-07-02T11:13:46;7.45;;;4.68;;
13319;SDS011;59599;47.608;12.190;2023-07-02T11:18:44;4.43;;;3.97;;
13319;SDS011;59599;47.608;12.190;2023-07-02T11:21:10;5.45;;;3.95;;
13319;SDS011;59599;47.608;12.190;2023-07-02T11:23:36;8.15;;;4.10;;
13319;SDS011;59599;47.608;12.190;2023-07-02T11:26:02;7.68;;;4.35;;
13319;SDS011;59599;47.608;12.190;2023-07-02T11:28:29;4.70;;;4.07;;
13319;SDS011;59599;47.608;12.190;2023-07-02T11:30:56;7.63;;;5.53;;
13319;SDS011;59599;47.608;12.190;2023-07-02T11:33:38;6.13;;;4.57;;
13319;SDS011;59599;47.608;12.190;2023-07-02T11:36:05;7.25;;;5.50;;
13319;SDS011;59599;47.608;12.190;2023-07-02T11:38:36;7.90;;;5.93;;
13319;SDS011;59599;47.608;12.190;2023-07-02T11:41:02;8.90;;;5.78;;
13319;SDS011;59599;47.608;12.190;2023-07-02T11:43:28;9.27;;;6.43;;
13319;SDS011;59599;47.608;12.190;2023-07-02T11:45:54;7.47;;;5.65;;
13319;SDS011;59599;47.608;12.190;2023-07-02T11:48:20;7.95;;;5.57;;
13319;SDS011;59599;47.608;12.190;2023-07-02T11:50:46;9.82;;;6.47;;
13319;SDS011;59599;47.608;12.190;2023-07-02T11:53:12;10.48;;;6.47;;
13319;SDS011;59599;47.608;12.190;2023-07-02T11:55:38;8.23;;;7.38;;
13319;SDS011;59599;47.608;12.190;2023-07-02T11:58:04;11.88;;;8.48;;
13319;SDS011;59599;47.608;12.190;2023-07-02T12:00:30;10.13;;;7.93;;
13319;SDS011;59599;47.608;12.190;2023-07-02T12:02:55;11.15;;;7.63;;
13319;SDS011;59599;47.608;12.190;2023-07-02T12:05:21;10.13;;;7.82;;
13319;SDS011;59599;47.608;12.190;2023-07-02T12:07:47;11.25;;;8.35;;
13319;SDS011;59599;47.608;12.190;2023-07-02T12:10:13;10.45;;;8.02;;
13319;SDS011;59599;47.608;12.190;2023-07-02T12:12:39;8.75;;;7.68;;
13319;SDS011;59599;47.608;12.190;2023-07-02T12:15:05;9.55;;;8.55;;
13319;SDS011;59599;47.608;12.190;2023-07-02T12:17:31;12.38;;;8.48;;
13319;SDS011;59599;47.608;12.190;2023-07-02T12:19:57;12.27;;;8.55;;
13319;SDS011;59599;47.608;12.190;2023-07-02T12:22:23;10.57;;;8.13;;
13319;SDS011;59599;47.608;12.190;2023-07-02T12:24:49;8.35;;;7.20;;
13319;SDS011;59599;47.608;12.190;2023-07-02T12:27:18;9.45;;;7.50;;
13319;SDS011;59599;47.608;12.190;2023-07-02T12:29:43;10.27;;;7.65;;
13319;SDS011;59599;47.608;12.190;2023-07-02T12:32:09;11.45;;;8.10;;
13319;SDS011;59599;47.608;12.190;2023-07-02T12:34:35;8.85;;;7.13;;
13319;SDS011;59599;47.608;12.190;2023-07-02T12:37:00;10.77;;;7.90;;
13319;SDS011;59599;47.608;12.190;2023-07-02T12:39:26;10.32;;;8.13;;
13319;SDS011;59599;47.608;12.190;2023-07-02T12:41:52;9.60;;;8.10;;
13319;SDS011;59599;47.608;12.190;2023-07-02T12:44:18;10.85;;;8.00;;
13319;SDS011;59599;47.608;12.190;2023-07-02T12:46:44;10.85;;;7.47;;
13319;SDS011;59599;47.608;12.190;2023-07-02T12:49:10;9.68;;;8.23;;
13319;SDS011;59599;47.608;12.190;2023-07-02T12:51:36;9.85;;;7.38;;
13319;SDS011;59599;47.608;12.190;2023-07-02T12:54:01;8.60;;;7.65;;
13319;SDS011;59599;47.608;12.190;2023-07-02T12:56:27;10.50;;;8.88;;
13319;SDS011;59599;47.608;12.190;2023-07-02T12:58:53;9.05;;;7.03;;
13319;SDS011;59599;47.608;12.190;2023-07-02T13:01:19;9.13;;;8.02;;
13319;SDS011;59599;47.608;12.190;2023-07-02T13:03:45;9.52;;;7.60;;
13319;SDS011;59599;47.608;12.190;2023-07-02T13:06:12;10.60;;;7.63;;
13319;SDS011;59599;47.608;12.190;2023-07-02T13:08:38;9.05;;;7.13;;
13319;SDS011;59599;47.608;12.190;2023-07-02T13:11:04;8.80;;;7.40;;
13319;SDS011;59599;47.608;12.190;2023-07-02T13:13:29;9.23;;;6.90;;
13319;SDS011;59599;47.608;12.190;2023-07-02T13:15:55;10.98;;;6.88;;
13319;SDS011;59599;47.608;12.190;2023-07-02T13:18:21;8.95;;;6.82;;
13319;SDS011;59599;47.608;12.190;2023-07-02T13:20:47;10.18;;;7.63;;
13319;SDS011;59599;47.608;12.190;2023-07-02T13:23:13;9.88;;;7.20;;
13319;SDS011;59599;47.608;12.190;2023-07-02T13:25:39;9.82;;;8.27;;
13319;SDS011;59599;47.608;12.190;2023-07-02T13:28:05;9.68;;;7.57;;
13319;SDS011;59599;47.608;12.190;2023-07-02T13:30:30;13.40;;;7.80;;
13319;SDS011;59599;47.608;12.190;2023-07-02T13:32:56;8.93;;;7.03;;
13319;SDS011;59599;47.608;12.190;2023-07-02T13:35:22;7.93;;;6.47;;
13319;SDS011;59599;47.608;12.190;2023-07-02T13:37:47;8.45;;;7.00;;
13319;SDS011;59599;47.608;12.190;2023-07-02T13:40:13;7.82;;;6.30;;
13319;SDS011;59599;47.608;12.190;2023-07-02T13:42:40;9.50;;;6.10;;
13319;SDS011;59599;47.608;12.190;2023-07-02T13:45:07;9.35;;;6.43;;
13319;SDS011;59599;47.608;12.190;2023-07-02T13:47:34;7.25;;;6.05;;
13319;SDS011;59599;47.608;12.190;2023-07-02T13:50:00;9.10;;;6.50;;
13319;SDS011;59599;47.608;12.190;2023-07-02T13:52:26;8.45;;;6.13;;
13319;SDS011;59599;47.608;12.190;2023-07-02T13:54:52;9.55;;;6.88;;
13319;SDS011;59599;47.608;12.190;2023-07-02T13:57:18;8.77;;;5.72;;
13319;SDS011;59599;47.608;12.190;2023-07-02T13:59:44;8.23;;;5.97;;
13319;SDS011;59599;47.608;12.190;2023-07-02T14:02:09;7.03;;;5.93;;
13319;SDS011;59599;47.608;12.190;2023-07-02T14:04:35;6.40;;;5.43;;
13319;SDS011;59599;47.608;12.190;2023-07-02T14:07:02;7.45;;;5.47;;
13319;SDS011;59599;47.608;12.190;2023-07-02T14:09:28;7.07;;;5.45;;
13319;SDS011;59599;47.608;12.190;2023-07-02T14:11:54;5.60;;;4.90;;
13319;SDS011;59599;47.608;12.190;2023-07-02T14:14:20;6.75;;;5.00;;
13319;SDS011;59599;47.608;12.190;2023-07-02T14:16:46;7.43;;;5.00;;
13319;SDS011;59599;47.608;12.190;2023-07-02T14:19:12;7.45;;;5.18;;
13319;SDS011;59599;47.608;12.190;2023-07-02T14:21:37;5.93;;;5.07;;
13319;SDS011;59599;47.608;12.190;2023-07-02T14:24:03;5.72;;;4.70;;
13319;SDS011;59599;47.608;12.190;2023-07-02T14:26:29;7.40;;;5.10;;
13319;SDS011;59599;47.608;12.190;2023-07-02T14:28:55;6.25;;;4.60;;
13319;SDS011;59599;47.608;12.190;2023-07-02T14:31:21;5.15;;;4.65;;
13319;SDS011;59599;47.608;12.190;2023-07-02T14:33:46;6.32;;;5.00;;
13319;SDS011;59599;47.608;12.190;2023-07-02T14:36:12;5.97;;;4.43;;
13319;SDS011;59599;47.608;12.190;2023-07-02T14:38:38;7.43;;;4.93;;
13319;SDS011;59599;47.608;12.190;2023-07-02T14:41:04;5.75;;;4.43;;
13319;SDS011;59599;47.608;12.190;2023-07-02T14:43:30;5.53;;;4.30;;
13319;SDS011;59599;47.608;12.190;2023-07-02T14:45:57;5.50;;;5.00;;
13319;SDS011;59599;47.608;12.190;2023-07-02T14:48:24;6.07;;;4.57;;
13319;SDS011;59599;47.608;12.190;2023-07-02T14:50:51;5.32;;;4.10;;
13319;SDS011;59599;47.608;12.190;2023-07-02T14:53:18;7.05;;;4.70;;
13319;SDS011;59599;47.608;12.190;2023-07-02T14:55:44;6.55;;;4.57;;
13319;SDS011;59599;47.608;12.190;2023-07-02T14:58:11;5.13;;;4.60;;
13319;SDS011;59599;47.608;12.190;2023-07-02T15:00:47;5.70;;;4.65;;
13319;SDS011;59599;47.608;12.190;2023-07-02T15:03:13;4.78;;;4.20;;
13319;SDS011;59599;47.608;12.190;2023-07-02T15:05:39;4.60;;;4.05;;
13319;SDS011;59599;47.608;12.190;2023-07-02T15:08:06;4.68;;;4.00;;
13319;SDS011;59599;47.608;12.190;2023-07-02T15:10:37;4.70;;;4.07;;
13319;SDS011;59599;47.608;12.190;2023-07-02T15:13:04;4.82;;;4.03;;
13319;SDS011;59599;47.608;12.190;2023-07-02T15:15:30;3.95;;;3.50;;
13319;SDS011;59599;47.608;12.190;2023-07-02T15:17:56;5.45;;;4.38;;
13319;SDS011;59599;47.608;12.190;2023-07-02T15:20:22;5.68;;;4.25;;
13319;SDS011;59599;47.608;12.190;2023-07-02T15:22:48;4.88;;;4.28;;
13319;SDS011;59599;47.608;12.190;2023-07-02T15:25:14;4.88;;;4.32;;
13319;SDS011;59599;47.608;12.190;2023-07-02T15:27:40;5.38;;;4.30;;
13319;SDS011;59599;47.608;12.190;2023-07-02T15:30:06;4.32;;;3.90;;
13319;SDS011;59599;47.608;12.190;2023-07-02T15:32:32;6.15;;;3.85;;
13319;SDS011;59599;47.608;12.190;2023-07-02T15:34:58;4.75;;;4.05;;
13319;SDS011;59599;47.608;12.190;2023-07-02T15:37:24;5.15;;;4.65;;
13319;SDS011;59599;47.608;12.190;2023-07-02T15:39:49;4.32;;;3.92;;
13319;SDS011;59599;47.608;12.190;2023-07-02T15:42:15;5.25;;;4.68;;
13319;SDS011;59599;47.608;12.190;2023-07-02T15:44:41;5.72;;;4.55;;
13319;SDS011;59599;47.608;12.190;2023-07-02T15:47:07;5.38;;;4.78;;
13319;SDS011;59599;47.608;12.190;2023-07-02T15:49:33;4.78;;;4.25;;
13319;SDS011;59599;47.608;12.190;2023-07-02T15:51:59;5.22;;;4.47;;
13319;SDS011;59599;47.608;12.190;2023-07-02T15:54:25;5.20;;;4.32;;
13319;SDS011;59599;47.608;12.190;2023-07-02T15:56:51;5.13;;;4.50;;
13319;SDS011;59599;47.608;12.190;2023-07-02T15:59:16;5.80;;;4.28;;
13319;SDS011;59599;47.608;12.190;2023-07-02T16:01:42;5.38;;;4.40;;
13319;SDS011;59599;47.608;12.190;2023-07-02T16:04:12;4.75;;;4.25;;
13319;SDS011;59599;47.608;12.190;2023-07-02T16:06:38;4.90;;;4.40;;
13319;SDS011;59599;47.608;12.190;2023-07-02T16:09:04;5.00;;;4.38;;
13319;SDS011;59599;47.608;12.190;2023-07-02T16:11:33;5.38;;;4.00;;
13319;SDS011;59599;47.608;12.190;2023-07-02T16:14:00;4.78;;;4.28;;
13319;SDS011;59599;47.608;12.190;2023-07-02T16:16:32;4.80;;;4.30;;
13319;SDS011;59599;47.608;12.190;2023-07-02T16:18:58;4.45;;;4.05;;
13319;SDS011;59599;47.608;12.190;2023-07-02T16:21:25;7.28;;;4.30;;
13319;SDS011;59599;47.608;12.190;2023-07-02T16:23:50;4.47;;;3.83;;
13319;SDS011;59599;47.608;12.190;2023-07-02T16:26:16;4.28;;;3.88;;
13319;SDS011;59599;47.608;12.190;2023-07-02T16:28:42;4.40;;;3.97;;
13319;SDS011;59599;47.608;12.190;2023-07-02T16:31:08;5.60;;;5.00;;
13319;SDS011;59599;47.608;12.190;2023-07-02T16:33:34;5.97;;;4.60;;
13319;SDS011;59599;47.608;12.190;2023-07-02T16:36:05;5.25;;;4.35;;
13319;SDS011;59599;47.608;12.190;2023-07-02T16:38:32;5.97;;;4.65;;
13319;SDS011;59599;47.608;12.190;2023-07-02T16:41:00;5.65;;;4.15;;
13319;SDS011;59599;47.608;12.190;2023-07-02T16:43:26;4.97;;;4.22;;
13319;SDS011;59599;47.608;12.190;2023-07-02T16:45:52;4.95;;;4.43;;
13319;SDS011;59599;47.608;12.190;2023-07-02T16:48:18;4.60;;;4.10;;
13319;SDS011;59599;47.608;12.190;2023-07-02T16:50:44;4.90;;;4.35;;
13319;SDS011;59599;47.608;12.190;2023-07-02T16:53:11;4.78;;;4.35;;
13319;SDS011;59599;47.608;12.190;2023-07-02T16:55:37;5.78;;;4.55;;
13319;SDS011;59599;47.608;12.190;2023-07-02T16:58:06;4.93;;;4.05;;
13319;SDS011;59599;47.608;12.190;2023-07-02T17:00:32;5.30;;;4.55;;
13319;SDS011;59599;47.608;12.190;2023-07-02T17:02:57;4.78;;;4.28;;
13319;SDS011;59599;47.608;12.190;2023-07-02T17:05:23;6.50;;;4.93;;
13319;SDS011;59599;47.608;12.190;2023-07-02T17:07:49;7.28;;;4.93;;
13319;SDS011;59599;47.608;12.190;2023-07-02T17:10:15;5.20;;;4.50;;
13319;SDS011;59599;47.608;12.190;2023-07-02T17:12:41;6.18;;;4.72;;
13319;SDS011;59599;47.608;12.190;2023-07-02T17:15:08;6.22;;;4.90;;
13319;SDS011;59599;47.608;12.190;2023-07-02T17:17:34;6.40;;;4.80;;
13319;SDS011;59599;47.608;12.190;2023-07-02T17:19:59;5.68;;;4.90;;
13319;SDS011;59599;47.608;12.190;2023-07-02T17:22:27;6.10;;;5.15;;
13319;SDS011;59599;47.608;12.190;2023-07-02T17:24:54;6.80;;;5.20;;
13319;SDS011;59599;47.608;12.190;2023-07-02T17:27:22;9.05;;;5.68;;
13319;SDS011;59599;47.608;12.190;2023-07-02T17:29:52;6.97;;;5.35;;
13319;SDS011;59599;47.608;12.190;2023-07-02T17:32:18;7.63;;;5.18;;
13319;SDS011;59599;47.608;12.190;2023-07-02T17:34:44;7.55;;;5.13;;
13319;SDS011;59599;47.608;12.190;2023-07-02T17:37:10;8.35;;;5.28;;
13319;SDS011;59599;47.608;12.190;2023-07-02T17:39:39;6.00;;;5.32;;
13319;SDS011;59599;47.608;12.190;2023-07-02T17:42:05;11.02;;;5.20;;
13319;SDS011;59599;47.608;12.190;2023-07-02T17:44:38;8.35;;;5.05;;
13319;SDS011;59599;47.608;12.190;2023-07-02T17:47:07;8.23;;;5.15;;
13319;SDS011;59599;47.608;12.190;2023-07-02T17:49:35;6.20;;;5.25;;
13319;SDS011;59599;47.608;12.190;2023-07-02T17:52:01;6.90;;;4.60;;
13319;SDS011;59599;47.608;12.190;2023-07-02T17:54:32;5.53;;;4.82;;
13319;SDS011;59599;47.608;12.190;2023-07-02T17:56:58;7.07;;;5.15;;
13319;SDS011;59599;47.608;12.190;2023-07-02T17:59:24;6.65;;;4.90;;
13319;SDS011;59599;47.608;12.190;2023-07-02T18:01:51;8.02;;;5.53;;
13319;SDS011;59599;47.608;12.190;2023-07-02T18:04:18;8.07;;;4.63;;
13319;SDS011;59599;47.608;12.190;2023-07-02T18:06:47;7.47;;;4.82;;
13319;SDS011;59599;47.608;12.190;2023-07-02T18:09:16;5.75;;;4.70;;
13319;SDS011;59599;47.608;12.190;2023-07-02T18:11:41;5.35;;;4.00;;
13319;SDS011;59599;47.608;12.190;2023-07-02T18:14:07;7.65;;;5.20;;
13319;SDS011;59599;47.608;12.190;2023-07-02T18:16:33;6.57;;;4.78;;
13319;SDS011;59599;47.608;12.190;2023-07-02T18:18:59;6.38;;;5.22;;
13319;SDS011;59599;47.608;12.190;2023-07-02T18:21:25;6.78;;;5.13;;
13319;SDS011;59599;47.608;12.190;2023-07-02T18:23:51;8.20;;;5.28;;
13319;SDS011;59599;47.608;12.190;2023-07-02T18:26:17;9.35;;;5.38;;
13319;SDS011;59599;47.608;12.190;2023-07-02T18:28:43;7.07;;;5.75;;
13319;SDS011;59599;47.608;12.190;2023-07-02T18:31:09;6.28;;;5.43;;
13319;SDS011;59599;47.608;12.190;2023-07-02T18:33:35;6.43;;;4.85;;
13319;SDS011;59599;47.608;12.190;2023-07-02T18:36:01;7.57;;;5.28;;
13319;SDS011;59599;47.608;12.190;2023-07-02T18:38:27;5.82;;;4.85;;